sensor_id;sensor_type;location;lat;lon;timestamp;P1;durP1;ratioP1;P2;durP2;ratioP2
10100;SDS011;5090;51.258;4.436;2022-08-02T00:02:26;8.30;;;1.43;;
10100;SDS011;5090;51.258;4.436;2022-08-02T00:04:54;5.57;;;1.27;;
10100;SDS011;5090;51.258;4.436;2022-08-02T00:07:22;2.33;;;1.40;;
10100;SDS011;5090;51.258;4.436;2022-08-02T00:09:51;9.67;;;1.53;;
10100;SDS011;5090;51.258;4.436;2022-08-02T00:12:19;3.20;;;1.63;;
10100;SDS011;5090;51.258;4.436;2022-08-02T00:14:47;5.03;;;1.30;;
10100;SDS011;5090;51.258;4.436;2022-08-02T00:17:15;10.80;;;1.47;;
10100;SDS011;5090;51.258;4.436;2022-08-02T00:19:43;4.63;;;1.40;;
10100;SDS011;5090;51.258;4.436;2022-08-02T00:22:12;4.53;;;1.50;;
10100;SDS011;5090;51.258;4.436;2022-08-02T00:24:40;3.37;;;1.30;;
10100;SDS011;5090;51.258;4.436;2022-08-02T00:27:08;3.20;;;1.87;;
10100;SDS011;5090;51.258;4.436;2022-08-02T00:29:36;7.37;;;1.63;;
10100;SDS011;5090;51.258;4.436;2022-08-02T00:32:04;3.03;;;1.33;;
10100;SDS011;5090;51.258;4.436;2022-08-02T00:34:33;5.78;;;1.30;;
10100;SDS011;5090;51.258;4.436;2022-08-02T00:37:01;5.47;;;1.77;;
10100;SDS011;5090;51.258;4.436;2022-08-02T00:39:29;1.63;;;1.30;;
10100;SDS011;5090;51.258;4.436;2022-08-02T00:41:57;5.03;;;1.60;;
10100;SDS011;5090;51.258;4.436;2022-08-02T00:44:25;3.07;;;1.50;;
10100;SDS011;5090;51.258;4.436;2022-08-02T00:46:54;4.03;;;1.70;;
10100;SDS011;5090;51.258;4.436;2022-08-02T00:49:22;4.73;;;1.37;;
10100;SDS011;5090;51.258;4.436;2022-08-02T00:51:50;2.97;;;1.60;;
10100;SDS011;5090;51.258;4.436;2022-08-02T00:54:18;4.03;;;1.60;;
10100;SDS011;5090;51.258;4.436;2022-08-02T00:56:46;2.63;;;1.23;;
10100;SDS011;5090;51.258;4.436;2022-08-02T00:59:15;4.00;;;1.87;;
10100;SDS011;5090;51.258;4.436;2022-08-02T01:01:43;3.63;;;1.70;;
10100;SDS011;5090;51.258;4.436;2022-08-02T01:04:12;4.07;;;1.70;;
10100;SDS011;5090;51.258;4.436;2022-08-02T01:06:40;5.63;;;1.80;;
10100;SDS011;5090;51.258;4.436;2022-08-02T01:09:08;2.40;;;1.77;;
10100;SDS011;5090;51.258;4.436;2022-08-02T01:11:36;5.07;;;1.47;;
10100;SDS011;5090;51.258;4.436;2022-08-02T01:14:06;5.93;;;2.00;;
10100;SDS011;5090;51.258;4.436;2022-08-02T01:16:35;3.10;;;2.00;;
10100;SDS011;5090;51.258;4.436;2022-08-02T01:19:05;3.77;;;1.83;;
10100;SDS011;5090;51.258;4.436;2022-08-02T01:21:32;7.33;;;2.20;;
10100;SDS011;5090;51.258;4.436;2022-08-02T01:26:36;5.17;;;1.70;;
10100;SDS011;5090;51.258;4.436;2022-08-02T01:29:40;6.27;;;1.83;;
10100;SDS011;5090;51.258;4.436;2022-08-02T01:31:53;5.33;;;1.87;;
10100;SDS011;5090;51.258;4.436;2022-08-02T01:34:29;5.60;;;1.77;;
10100;SDS011;5090;51.258;4.436;2022-08-02T01:39:32;5.77;;;1.57;;
10100;SDS011;5090;51.258;4.436;2022-08-02T01:42:00;5.90;;;1.60;;
10100;SDS011;5090;51.258;4.436;2022-08-02T01:44:29;2.93;;;1.57;;
10100;SDS011;5090;51.258;4.436;2022-08-02T01:46:59;6.17;;;2.00;;
10100;SDS011;5090;51.258;4.436;2022-08-02T01:49:24;4.40;;;1.80;;
10100;SDS011;5090;51.258;4.436;2022-08-02T01:51:52;3.77;;;1.67;;
10100;SDS011;5090;51.258;4.436;2022-08-02T01:54:28;5.40;;;2.03;;
10100;SDS011;5090;51.258;4.436;2022-08-02T01:56:54;2.97;;;1.93;;
10100;SDS011;5090;51.258;4.436;2022-08-02T01:59:23;5.80;;;2.00;;
10100;SDS011;5090;51.258;4.436;2022-08-02T02:01:51;5.90;;;2.10;;
10100;SDS011;5090;51.258;4.436;2022-08-02T02:04:19;4.93;;;3.40;;
10100;SDS011;5090;51.258;4.436;2022-08-02T02:06:48;2.57;;;1.80;;
10100;SDS011;5090;51.258;4.436;2022-08-02T02:09:16;4.03;;;1.80;;
10100;SDS011;5090;51.258;4.436;2022-08-02T02:11:44;5.27;;;2.07;;
10100;SDS011;5090;51.258;4.436;2022-08-02T02:14:13;6.13;;;2.00;;
10100;SDS011;5090;51.258;4.436;2022-08-02T02:16:41;5.33;;;2.30;;
10100;SDS011;5090;51.258;4.436;2022-08-02T02:19:09;4.43;;;2.13;;
10100;SDS011;5090;51.258;4.436;2022-08-02T02:21:37;5.77;;;2.37;;
10100;SDS011;5090;51.258;4.436;2022-08-02T02:24:06;6.77;;;2.00;;
10100;SDS011;5090;51.258;4.436;2022-08-02T02:26:34;5.57;;;2.23;;
10100;SDS011;5090;51.258;4.436;2022-08-02T02:29:03;3.83;;;2.33;;
10100;SDS011;5090;51.258;4.436;2022-08-02T02:31:33;8.50;;;2.50;;
10100;SDS011;5090;51.258;4.436;2022-08-02T02:34:00;4.57;;;2.30;;
10100;SDS011;5090;51.258;4.436;2022-08-02T02:36:28;5.77;;;3.03;;
10100;SDS011;5090;51.258;4.436;2022-08-02T02:38:56;8.03;;;3.27;;
10100;SDS011;5090;51.258;4.436;2022-08-02T02:41:24;7.30;;;2.97;;
10100;SDS011;5090;51.258;4.436;2022-08-02T02:43:53;4.63;;;2.70;;
10100;SDS011;5090;51.258;4.436;2022-08-02T02:46:21;4.77;;;2.20;;
10100;SDS011;5090;51.258;4.436;2022-08-02T02:48:49;5.33;;;2.90;;
10100;SDS011;5090;51.258;4.436;2022-08-02T02:51:18;6.37;;;2.87;;
10100;SDS011;5090;51.258;4.436;2022-08-02T02:53:46;6.93;;;2.83;;
10100;SDS011;5090;51.258;4.436;2022-08-02T02:56:15;3.03;;;2.40;;
10100;SDS011;5090;51.258;4.436;2022-08-02T02:58:43;6.17;;;2.67;;
10100;SDS011;5090;51.258;4.436;2022-08-02T03:01:10;8.63;;;2.80;;
10100;SDS011;5090;51.258;4.436;2022-08-02T03:03:44;7.17;;;3.23;;
10100;SDS011;5090;51.258;4.436;2022-08-02T03:06:13;7.33;;;2.90;;
10100;SDS011;5090;51.258;4.436;2022-08-02T03:08:41;6.10;;;3.37;;
10100;SDS011;5090;51.258;4.436;2022-08-02T03:11:09;4.93;;;2.67;;
10100;SDS011;5090;51.258;4.436;2022-08-02T03:13:38;5.40;;;2.63;;
10100;SDS011;5090;51.258;4.436;2022-08-02T03:16:06;8.57;;;2.73;;
10100;SDS011;5090;51.258;4.436;2022-08-02T03:18:34;11.43;;;3.93;;
10100;SDS011;5090;51.258;4.436;2022-08-02T03:21:03;5.60;;;3.13;;
10100;SDS011;5090;51.258;4.436;2022-08-02T03:23:30;5.17;;;2.70;;
10100;SDS011;5090;51.258;4.436;2022-08-02T03:25:58;12.97;;;6.77;;
10100;SDS011;5090;51.258;4.436;2022-08-02T03:28:27;6.33;;;3.77;;
10100;SDS011;5090;51.258;4.436;2022-08-02T03:30:55;5.33;;;3.23;;
10100;SDS011;5090;51.258;4.436;2022-08-02T03:33:23;6.80;;;3.07;;
10100;SDS011;5090;51.258;4.436;2022-08-02T03:35:52;6.93;;;2.97;;
10100;SDS011;5090;51.258;4.436;2022-08-02T03:38:21;6.40;;;2.73;;
10100;SDS011;5090;51.258;4.436;2022-08-02T03:40:48;7.43;;;2.77;;
10100;SDS011;5090;51.258;4.436;2022-08-02T03:43:16;5.73;;;3.03;;
10100;SDS011;5090;51.258;4.436;2022-08-02T03:45:46;12.93;;;4.27;;
10100;SDS011;5090;51.258;4.436;2022-08-02T03:48:14;6.17;;;3.37;;
10100;SDS011;5090;51.258;4.436;2022-08-02T03:50:42;6.27;;;2.70;;
10100;SDS011;5090;51.258;4.436;2022-08-02T03:53:10;4.27;;;3.27;;
10100;SDS011;5090;51.258;4.436;2022-08-02T03:55:38;4.37;;;3.10;;
10100;SDS011;5090;51.258;4.436;2022-08-02T03:58:06;9.43;;;5.10;;
10100;SDS011;5090;51.258;4.436;2022-08-02T04:00:34;7.93;;;4.50;;
10100;SDS011;5090;51.258;4.436;2022-08-02T04:03:02;7.63;;;3.87;;
10100;SDS011;5090;51.258;4.436;2022-08-02T04:05:31;9.63;;;5.00;;
10100;SDS011;5090;51.258;4.436;2022-08-02T04:07:59;4.97;;;3.77;;
10100;SDS011;5090;51.258;4.436;2022-08-02T04:10:27;7.07;;;3.80;;
10100;SDS011;5090;51.258;4.436;2022-08-02T04:12:55;6.60;;;3.87;;
10100;SDS011;5090;51.258;4.436;2022-08-02T04:15:24;9.30;;;3.73;;
10100;SDS011;5090;51.258;4.436;2022-08-02T04:17:53;11.13;;;3.40;;
10100;SDS011;5090;51.258;4.436;2022-08-02T04:20:20;8.40;;;3.67;;
10100;SDS011;5090;51.258;4.436;2022-08-02T04:22:51;8.53;;;3.83;;
10100;SDS011;5090;51.258;4.436;2022-08-02T04:25:17;8.70;;;3.00;;
10100;SDS011;5090;51.258;4.436;2022-08-02T04:27:45;8.60;;;3.80;;
10100;SDS011;5090;51.258;4.436;2022-08-02T04:30:15;6.90;;;3.60;;
10100;SDS011;5090;51.258;4.436;2022-08-02T04:32:43;5.90;;;3.60;;
10100;SDS011;5090;51.258;4.436;2022-08-02T04:35:10;5.70;;;3.87;;
10100;SDS011;5090;51.258;4.436;2022-08-02T04:37:38;6.30;;;3.83;;
10100;SDS011;5090;51.258;4.436;2022-08-02T04:40:08;7.47;;;3.87;;
10100;SDS011;5090;51.258;4.436;2022-08-02T04:42:36;8.03;;;4.87;;
10100;SDS011;5090;51.258;4.436;2022-08-02T04:45:05;9.63;;;4.17;;
10100;SDS011;5090;51.258;4.436;2022-08-02T04:47:33;7.93;;;4.77;;
10100;SDS011;5090;51.258;4.436;2022-08-02T04:50:02;12.53;;;6.83;;
10100;SDS011;5090;51.258;4.436;2022-08-02T04:52:30;10.33;;;6.30;;
10100;SDS011;5090;51.258;4.436;2022-08-02T04:54:58;15.27;;;7.47;;
10100;SDS011;5090;51.258;4.436;2022-08-02T04:57:26;12.47;;;7.77;;
10100;SDS011;5090;51.258;4.436;2022-08-02T05:00:00;14.10;;;7.90;;
10100;SDS011;5090;51.258;4.436;2022-08-02T05:02:28;12.83;;;7.80;;
10100;SDS011;5090;51.258;4.436;2022-08-02T05:04:57;16.53;;;7.57;;
10100;SDS011;5090;51.258;4.436;2022-08-02T05:07:25;9.20;;;6.90;;
10100;SDS011;5090;51.258;4.436;2022-08-02T05:09:53;10.70;;;7.03;;
10100;SDS011;5090;51.258;4.436;2022-08-02T05:12:21;11.45;;;7.03;;
10100;SDS011;5090;51.258;4.436;2022-08-02T05:14:50;10.70;;;6.10;;
10100;SDS011;5090;51.258;4.436;2022-08-02T05:17:18;11.85;;;6.47;;
10100;SDS011;5090;51.258;4.436;2022-08-02T05:19:47;10.35;;;6.00;;
10100;SDS011;5090;51.258;4.436;2022-08-02T05:22:15;9.40;;;6.18;;
10100;SDS011;5090;51.258;4.436;2022-08-02T05:24:43;11.15;;;5.80;;
10100;SDS011;5090;51.258;4.436;2022-08-02T05:27:11;14.65;;;6.22;;
10100;SDS011;5090;51.258;4.436;2022-08-02T05:29:40;11.02;;;5.45;;
10100;SDS011;5090;51.258;4.436;2022-08-02T05:32:08;9.75;;;5.47;;
10100;SDS011;5090;51.258;4.436;2022-08-02T05:34:36;14.15;;;6.03;;
10100;SDS011;5090;51.258;4.436;2022-08-02T05:37:04;8.73;;;5.45;;
10100;SDS011;5090;51.258;4.436;2022-08-02T05:39:33;9.55;;;5.80;;
10100;SDS011;5090;51.258;4.436;2022-08-02T05:42:01;11.10;;;5.80;;
10100;SDS011;5090;51.258;4.436;2022-08-02T05:44:29;6.55;;;5.25;;
10100;SDS011;5090;51.258;4.436;2022-08-02T05:46:57;10.63;;;6.65;;
10100;SDS011;5090;51.258;4.436;2022-08-02T05:49:26;11.73;;;5.90;;
10100;SDS011;5090;51.258;4.436;2022-08-02T05:51:59;9.05;;;5.97;;
10100;SDS011;5090;51.258;4.436;2022-08-02T05:54:30;9.60;;;5.75;;
10100;SDS011;5090;51.258;4.436;2022-08-02T05:57:00;8.20;;;6.07;;
10100;SDS011;5090;51.258;4.436;2022-08-02T05:59:32;9.82;;;5.87;;
10100;SDS011;5090;51.258;4.436;2022-08-02T06:02:02;8.10;;;5.60;;
10100;SDS011;5090;51.258;4.436;2022-08-02T06:13:14;10.90;;;6.53;;
10100;SDS011;5090;51.258;4.436;2022-08-02T06:15:42;13.60;;;6.87;;
10100;SDS011;5090;51.258;4.436;2022-08-02T06:18:11;12.70;;;6.25;;
10100;SDS011;5090;51.258;4.436;2022-08-02T06:20:39;8.57;;;6.95;;
10100;SDS011;5090;51.258;4.436;2022-08-02T06:23:07;9.88;;;7.53;;
10100;SDS011;5090;51.258;4.436;2022-08-02T06:25:36;11.75;;;6.72;;
10100;SDS011;5090;51.258;4.436;2022-08-02T06:28:04;9.10;;;6.72;;
10100;SDS011;5090;51.258;4.436;2022-08-02T06:30:32;10.43;;;6.60;;
10100;SDS011;5090;51.258;4.436;2022-08-02T06:33:01;8.18;;;6.12;;
10100;SDS011;5090;51.258;4.436;2022-08-02T06:35:41;9.88;;;6.12;;
10100;SDS011;5090;51.258;4.436;2022-08-02T06:38:07;11.60;;;6.75;;
10100;SDS011;5090;51.258;4.436;2022-08-02T06:40:40;7.57;;;5.85;;
10100;SDS011;5090;51.258;4.436;2022-08-02T06:43:09;8.05;;;6.18;;
10100;SDS011;5090;51.258;4.436;2022-08-02T06:45:33;10.43;;;6.00;;
10100;SDS011;5090;51.258;4.436;2022-08-02T06:48:01;11.38;;;5.85;;
10100;SDS011;5090;51.258;4.436;2022-08-02T06:50:29;9.68;;;5.47;;
10100;SDS011;5090;51.258;4.436;2022-08-02T06:52:57;9.13;;;5.25;;
10100;SDS011;5090;51.258;4.436;2022-08-02T06:55:25;7.78;;;4.90;;
10100;SDS011;5090;51.258;4.436;2022-08-02T06:57:54;15.82;;;4.87;;
10100;SDS011;5090;51.258;4.436;2022-08-02T07:00:22;10.40;;;4.32;;
10100;SDS011;5090;51.258;4.436;2022-08-02T07:02:50;6.53;;;4.53;;
10100;SDS011;5090;51.258;4.436;2022-08-02T07:05:18;7.68;;;4.20;;
10100;SDS011;5090;51.258;4.436;2022-08-02T07:07:46;8.95;;;4.10;;
10100;SDS011;5090;51.258;4.436;2022-08-02T07:10:15;7.87;;;3.90;;
10100;SDS011;5090;51.258;4.436;2022-08-02T07:12:43;5.87;;;3.75;;
10100;SDS011;5090;51.258;4.436;2022-08-02T07:15:11;7.78;;;4.32;;
10100;SDS011;5090;51.258;4.436;2022-08-02T07:17:39;5.03;;;3.30;;
10100;SDS011;5090;51.258;4.436;2022-08-02T07:20:07;5.68;;;3.45;;
10100;SDS011;5090;51.258;4.436;2022-08-02T07:22:36;6.93;;;3.30;;
10100;SDS011;5090;51.258;4.436;2022-08-02T07:25:04;4.82;;;2.55;;
10100;SDS011;5090;51.258;4.436;2022-08-02T07:27:32;9.07;;;2.90;;
10100;SDS011;5090;51.258;4.436;2022-08-02T07:30:00;2.75;;;2.03;;
10100;SDS011;5090;51.258;4.436;2022-08-02T07:32:29;5.57;;;2.60;;
10100;SDS011;5090;51.258;4.436;2022-08-02T07:34:57;3.80;;;2.62;;
10100;SDS011;5090;51.258;4.436;2022-08-02T07:37:28;4.60;;;2.33;;
10100;SDS011;5090;51.258;4.436;2022-08-02T07:39:53;4.18;;;2.17;;
10100;SDS011;5090;51.258;4.436;2022-08-02T07:42:22;4.15;;;1.70;;
10100;SDS011;5090;51.258;4.436;2022-08-02T07:44:50;3.33;;;1.67;;
10100;SDS011;5090;51.258;4.436;2022-08-02T07:47:18;3.03;;;1.95;;
10100;SDS011;5090;51.258;4.436;2022-08-02T07:49:47;5.43;;;1.87;;
10100;SDS011;5090;51.258;4.436;2022-08-02T07:52:15;2.35;;;1.85;;
10100;SDS011;5090;51.258;4.436;2022-08-02T07:54:43;5.70;;;1.87;;
10100;SDS011;5090;51.258;4.436;2022-08-02T07:57:11;3.15;;;1.77;;
10100;SDS011;5090;51.258;4.436;2022-08-02T07:59:39;7.12;;;1.70;;
10100;SDS011;5090;51.258;4.436;2022-08-02T08:02:08;4.85;;;1.95;;
10100;SDS011;5090;51.258;4.436;2022-08-02T08:04:36;4.90;;;1.90;;
10100;SDS011;5090;51.258;4.436;2022-08-02T08:07:04;2.37;;;1.33;;
10100;SDS011;5090;51.258;4.436;2022-08-02T08:09:32;3.85;;;1.30;;
10100;SDS011;5090;51.258;4.436;2022-08-02T08:12:01;2.62;;;1.30;;
10100;SDS011;5090;51.258;4.436;2022-08-02T08:14:29;2.15;;;1.30;;
10100;SDS011;5090;51.258;4.436;2022-08-02T08:16:57;2.10;;;1.12;;
10100;SDS011;5090;51.258;4.436;2022-08-02T08:19:25;4.25;;;1.15;;
10100;SDS011;5090;51.258;4.436;2022-08-02T08:21:54;2.92;;;1.30;;
10100;SDS011;5090;51.258;4.436;2022-08-02T08:24:22;3.55;;;1.60;;
10100;SDS011;5090;51.258;4.436;2022-08-02T08:26:50;3.33;;;1.58;;
10100;SDS011;5090;51.258;4.436;2022-08-02T08:29:18;3.33;;;1.30;;
10100;SDS011;5090;51.258;4.436;2022-08-02T08:31:47;3.55;;;1.60;;
10100;SDS011;5090;51.258;4.436;2022-08-02T08:34:15;2.05;;;1.62;;
10100;SDS011;5090;51.258;4.436;2022-08-02T08:36:43;5.25;;;1.60;;
10100;SDS011;5090;51.258;4.436;2022-08-02T08:39:11;2.83;;;1.20;;
10100;SDS011;5090;51.258;4.436;2022-08-02T08:41:41;4.65;;;1.40;;
10100;SDS011;5090;51.258;4.436;2022-08-02T08:44:08;5.00;;;1.25;;
10100;SDS011;5090;51.258;4.436;2022-08-02T08:46:36;3.78;;;1.50;;
10100;SDS011;5090;51.258;4.436;2022-08-02T08:49:05;2.70;;;1.10;;
10100;SDS011;5090;51.258;4.436;2022-08-02T08:51:36;1.58;;;1.20;;
10100;SDS011;5090;51.258;4.436;2022-08-02T08:54:04;3.55;;;1.15;;
10100;SDS011;5090;51.258;4.436;2022-08-02T08:56:33;4.55;;;1.12;;
10100;SDS011;5090;51.258;4.436;2022-08-02T08:59:01;2.47;;;1.25;;
10100;SDS011;5090;51.258;4.436;2022-08-02T09:01:30;1.55;;;1.25;;
10100;SDS011;5090;51.258;4.436;2022-08-02T09:03:58;3.85;;;1.12;;
10100;SDS011;5090;51.258;4.436;2022-08-02T09:06:27;2.25;;;0.93;;
10100;SDS011;5090;51.258;4.436;2022-08-02T09:08:56;3.00;;;1.00;;
10100;SDS011;5090;51.258;4.436;2022-08-02T09:11:25;2.37;;;0.80;;
10100;SDS011;5090;51.258;4.436;2022-08-02T09:13:55;2.12;;;0.80;;
10100;SDS011;5090;51.258;4.436;2022-08-02T09:16:29;6.00;;;1.45;;
10100;SDS011;5090;51.258;4.436;2022-08-02T09:18:57;4.15;;;0.73;;
10100;SDS011;5090;51.258;4.436;2022-08-02T09:21:32;3.47;;;1.02;;
10100;SDS011;5090;51.258;4.436;2022-08-02T09:23:53;2.28;;;0.98;;
10100;SDS011;5090;51.258;4.436;2022-08-02T09:26:22;1.60;;;0.60;;
10100;SDS011;5090;51.258;4.436;2022-08-02T09:28:51;3.53;;;1.00;;
10100;SDS011;5090;51.258;4.436;2022-08-02T09:31:19;4.40;;;0.95;;
10100;SDS011;5090;51.258;4.436;2022-08-02T09:33:55;1.73;;;0.73;;
10100;SDS011;5090;51.258;4.436;2022-08-02T09:36:22;7.10;;;0.65;;
10100;SDS011;5090;51.258;4.436;2022-08-02T09:38:55;2.47;;;0.77;;
10100;SDS011;5090;51.258;4.436;2022-08-02T09:41:24;2.55;;;0.80;;
10100;SDS011;5090;51.258;4.436;2022-08-02T09:43:51;2.55;;;0.75;;
10100;SDS011;5090;51.258;4.436;2022-08-02T09:46:19;3.28;;;0.70;;
10100;SDS011;5090;51.258;4.436;2022-08-02T09:49:03;3.12;;;0.70;;
10100;SDS011;5090;51.258;4.436;2022-08-02T09:51:38;1.58;;;0.82;;
10100;SDS011;5090;51.258;4.436;2022-08-02T09:54:07;1.17;;;0.62;;
10100;SDS011;5090;51.258;4.436;2022-08-02T09:56:39;3.70;;;1.27;;
10100;SDS011;5090;51.258;4.436;2022-08-02T09:59:06;0.80;;;0.60;;
10100;SDS011;5090;51.258;4.436;2022-08-02T10:01:34;1.92;;;0.90;;
10100;SDS011;5090;51.258;4.436;2022-08-02T10:04:04;1.70;;;0.90;;
10100;SDS011;5090;51.258;4.436;2022-08-02T10:06:32;3.53;;;1.02;;
10100;SDS011;5090;51.258;4.436;2022-08-02T10:09:00;1.23;;;0.90;;
10100;SDS011;5090;51.258;4.436;2022-08-02T10:11:29;3.15;;;0.90;;
10100;SDS011;5090;51.258;4.436;2022-08-02T10:13:57;4.57;;;0.98;;
10100;SDS011;5090;51.258;4.436;2022-08-02T10:16:25;4.22;;;0.90;;
10100;SDS011;5090;51.258;4.436;2022-08-02T10:18:54;1.15;;;0.52;;
10100;SDS011;5090;51.258;4.436;2022-08-02T10:21:25;1.75;;;0.82;;
10100;SDS011;5090;51.258;4.436;2022-08-02T10:23:52;1.75;;;0.88;;
10100;SDS011;5090;51.258;4.436;2022-08-02T10:26:21;2.70;;;0.80;;
10100;SDS011;5090;51.258;4.436;2022-08-02T10:28:49;4.80;;;1.00;;
10100;SDS011;5090;51.258;4.436;2022-08-02T10:31:18;0.90;;;0.52;;
10100;SDS011;5090;51.258;4.436;2022-08-02T10:33:46;2.37;;;0.60;;
10100;SDS011;5090;51.258;4.436;2022-08-02T10:36:14;1.60;;;0.50;;
10100;SDS011;5090;51.258;4.436;2022-08-02T10:38:42;1.60;;;0.88;;
10100;SDS011;5090;51.258;4.436;2022-08-02T10:41:11;1.85;;;0.75;;
10100;SDS011;5090;51.258;4.436;2022-08-02T10:43:39;2.90;;;0.80;;
10100;SDS011;5090;51.258;4.436;2022-08-02T10:49:18;6.47;;;1.05;;
10100;SDS011;5090;51.258;4.436;2022-08-02T10:54:07;5.97;;;0.62;;
10100;SDS011;5090;51.258;4.436;2022-08-02T10:56:44;1.00;;;0.55;;
10100;SDS011;5090;51.258;4.436;2022-08-02T11:01:42;1.87;;;0.85;;
10100;SDS011;5090;51.258;4.436;2022-08-02T11:04:05;1.58;;;0.70;;
10100;SDS011;5090;51.258;4.436;2022-08-02T11:06:34;2.70;;;1.02;;
10100;SDS011;5090;51.258;4.436;2022-08-02T11:11:50;4.53;;;1.17;;
10100;SDS011;5090;51.258;4.436;2022-08-02T11:14:05;5.15;;;1.10;;
10100;SDS011;5090;51.258;4.436;2022-08-02T11:19:08;1.17;;;0.77;;
10100;SDS011;5090;51.258;4.436;2022-08-02T11:21:36;3.25;;;1.00;;
10100;SDS011;5090;51.258;4.436;2022-08-02T11:24:25;3.42;;;1.10;;
10100;SDS011;5090;51.258;4.436;2022-08-02T11:26:54;2.45;;;0.80;;
10100;SDS011;5090;51.258;4.436;2022-08-02T11:29:30;1.20;;;0.77;;
10100;SDS011;5090;51.258;4.436;2022-08-02T11:31:50;2.87;;;0.95;;
10100;SDS011;5090;51.258;4.436;2022-08-02T11:34:18;3.30;;;1.02;;
10100;SDS011;5090;51.258;4.436;2022-08-02T11:36:47;5.05;;;0.80;;
10100;SDS011;5090;51.258;4.436;2022-08-02T11:39:15;3.25;;;1.00;;
10100;SDS011;5090;51.258;4.436;2022-08-02T11:41:47;5.15;;;1.02;;
10100;SDS011;5090;51.258;4.436;2022-08-02T11:44:15;1.80;;;0.90;;
10100;SDS011;5090;51.258;4.436;2022-08-02T11:46:43;3.03;;;0.90;;
10100;SDS011;5090;51.258;4.436;2022-08-02T11:49:14;3.17;;;0.90;;
10100;SDS011;5090;51.258;4.436;2022-08-02T11:54:21;1.92;;;0.82;;
10100;SDS011;5090;51.258;4.436;2022-08-02T11:56:44;4.82;;;0.98;;
10100;SDS011;5090;51.258;4.436;2022-08-02T11:59:12;2.67;;;1.00;;
10100;SDS011;5090;51.258;4.436;2022-08-02T12:01:40;5.43;;;0.90;;
10100;SDS011;5090;51.258;4.436;2022-08-02T12:04:09;4.32;;;1.00;;
10100;SDS011;5090;51.258;4.436;2022-08-02T12:06:37;1.15;;;0.73;;
10100;SDS011;5090;51.258;4.436;2022-08-02T12:09:07;1.12;;;0.50;;
10100;SDS011;5090;51.258;4.436;2022-08-02T12:11:35;2.40;;;0.90;;
10100;SDS011;5090;51.258;4.436;2022-08-02T12:14:03;3.08;;;0.55;;
10100;SDS011;5090;51.258;4.436;2022-08-02T12:16:32;0.52;;;0.47;;
10100;SDS011;5090;51.258;4.436;2022-08-02T12:19:05;1.27;;;0.62;;
10100;SDS011;5090;51.258;4.436;2022-08-02T12:21:39;1.92;;;0.60;;
10100;SDS011;5090;51.258;4.436;2022-08-02T12:24:07;4.80;;;1.20;;
10100;SDS011;5090;51.258;4.436;2022-08-02T12:26:40;0.98;;;0.70;;
10100;SDS011;5090;51.258;4.436;2022-08-02T12:29:08;5.28;;;0.88;;
10100;SDS011;5090;51.258;4.436;2022-08-02T12:31:38;3.10;;;0.65;;
10100;SDS011;5090;51.258;4.436;2022-08-02T12:34:11;2.60;;;0.90;;
10100;SDS011;5090;51.258;4.436;2022-08-02T12:36:38;2.72;;;0.57;;
10100;SDS011;5090;51.258;4.436;2022-08-02T12:39:09;2.60;;;0.93;;
10100;SDS011;5090;51.258;4.436;2022-08-02T12:41:34;1.90;;;0.60;;
10100;SDS011;5090;51.258;4.436;2022-08-02T12:44:03;1.52;;;0.57;;
10100;SDS011;5090;51.258;4.436;2022-08-02T12:46:31;1.55;;;0.60;;
10100;SDS011;5090;51.258;4.436;2022-08-02T12:49:00;4.72;;;0.75;;
10100;SDS011;5090;51.258;4.436;2022-08-02T12:51:30;4.20;;;0.60;;
10100;SDS011;5090;51.258;4.436;2022-08-02T12:56:32;3.25;;;0.65;;
10100;SDS011;5090;51.258;4.436;2022-08-02T12:58:59;2.83;;;0.55;;
10100;SDS011;5090;51.258;4.436;2022-08-02T13:01:29;1.15;;;0.62;;
10100;SDS011;5090;51.258;4.436;2022-08-02T13:03:57;2.58;;;0.65;;
10100;SDS011;5090;51.258;4.436;2022-08-02T13:06:26;5.03;;;0.77;;
10100;SDS011;5090;51.258;4.436;2022-08-02T13:08:54;3.75;;;0.90;;
10100;SDS011;5090;51.258;4.436;2022-08-02T13:11:22;1.83;;;0.70;;
10100;SDS011;5090;51.258;4.436;2022-08-02T13:13:50;2.53;;;0.60;;
10100;SDS011;5090;51.258;4.436;2022-08-02T13:16:18;2.95;;;0.90;;
10100;SDS011;5090;51.258;4.436;2022-08-02T13:18:47;1.35;;;0.75;;
10100;SDS011;5090;51.258;4.436;2022-08-02T13:21:15;7.43;;;0.80;;
10100;SDS011;5090;51.258;4.436;2022-08-02T13:23:43;2.17;;;0.95;;
10100;SDS011;5090;51.258;4.436;2022-08-02T13:26:11;4.12;;;0.73;;
10100;SDS011;5090;51.258;4.436;2022-08-02T13:28:39;1.00;;;0.55;;
10100;SDS011;5090;51.258;4.436;2022-08-02T13:31:08;6.30;;;0.90;;
10100;SDS011;5090;51.258;4.436;2022-08-02T13:33:36;1.08;;;0.70;;
10100;SDS011;5090;51.258;4.436;2022-08-02T13:36:04;3.67;;;1.08;;
10100;SDS011;5090;51.258;4.436;2022-08-02T13:38:33;6.15;;;1.05;;
10100;SDS011;5090;51.258;4.436;2022-08-02T13:41:01;1.15;;;0.75;;
10100;SDS011;5090;51.258;4.436;2022-08-02T13:43:36;3.78;;;1.10;;
10100;SDS011;5090;51.258;4.436;2022-08-02T13:46:04;6.22;;;0.93;;
10100;SDS011;5090;51.258;4.436;2022-08-02T13:48:33;2.40;;;0.80;;
10100;SDS011;5090;51.258;4.436;2022-08-02T13:51:01;3.33;;;0.93;;
10100;SDS011;5090;51.258;4.436;2022-08-02T13:53:29;2.05;;;0.82;;
10100;SDS011;5090;51.258;4.436;2022-08-02T13:55:58;4.53;;;0.98;;
10100;SDS011;5090;51.258;4.436;2022-08-02T13:58:26;2.83;;;1.10;;
10100;SDS011;5090;51.258;4.436;2022-08-02T14:00:55;5.93;;;1.73;;
10100;SDS011;5090;51.258;4.436;2022-08-02T14:03:28;3.83;;;0.80;;
10100;SDS011;5090;51.258;4.436;2022-08-02T14:05:57;5.25;;;0.80;;
10100;SDS011;5090;51.258;4.436;2022-08-02T14:08:26;2.15;;;0.80;;
10100;SDS011;5090;51.258;4.436;2022-08-02T14:10:58;1.35;;;0.90;;
10100;SDS011;5090;51.258;4.436;2022-08-02T14:13:26;7.43;;;0.80;;
10100;SDS011;5090;51.258;4.436;2022-08-02T14:15:54;1.67;;;0.88;;
10100;SDS011;5090;51.258;4.436;2022-08-02T14:18:22;2.47;;;0.93;;
10100;SDS011;5090;51.258;4.436;2022-08-02T14:20:51;3.45;;;0.77;;
10100;SDS011;5090;51.258;4.436;2022-08-02T14:23:19;3.25;;;0.88;;
10100;SDS011;5090;51.258;4.436;2022-08-02T14:25:47;1.98;;;0.90;;
10100;SDS011;5090;51.258;4.436;2022-08-02T14:28:15;5.65;;;1.10;;
10100;SDS011;5090;51.258;4.436;2022-08-02T14:30:44;8.68;;;1.23;;
10100;SDS011;5090;51.258;4.436;2022-08-02T14:33:13;3.53;;;1.00;;
10100;SDS011;5090;51.258;4.436;2022-08-02T14:35:41;7.37;;;1.37;;
10100;SDS011;5090;51.258;4.436;2022-08-02T14:38:09;3.87;;;0.60;;
10100;SDS011;5090;51.258;4.436;2022-08-02T14:40:37;4.87;;;1.23;;
10100;SDS011;5090;51.258;4.436;2022-08-02T14:43:06;4.72;;;1.02;;
10100;SDS011;5090;51.258;4.436;2022-08-02T14:45:35;2.37;;;0.77;;
10100;SDS011;5090;51.258;4.436;2022-08-02T14:48:03;1.55;;;0.70;;
10100;SDS011;5090;51.258;4.436;2022-08-02T14:50:31;5.35;;;1.00;;
10100;SDS011;5090;51.258;4.436;2022-08-02T14:53:00;1.80;;;0.70;;
10100;SDS011;5090;51.258;4.436;2022-08-02T14:55:28;4.25;;;1.02;;
10100;SDS011;5090;51.258;4.436;2022-08-02T14:57:56;5.70;;;1.05;;
10100;SDS011;5090;51.258;4.436;2022-08-02T15:00:24;2.28;;;0.85;;
10100;SDS011;5090;51.258;4.436;2022-08-02T15:02:53;2.75;;;1.00;;
10100;SDS011;5090;51.258;4.436;2022-08-02T15:05:22;2.47;;;0.80;;
10100;SDS011;5090;51.258;4.436;2022-08-02T15:07:50;3.22;;;0.80;;
10100;SDS011;5090;51.258;4.436;2022-08-02T15:10:18;3.40;;;0.90;;
10100;SDS011;5090;51.258;4.436;2022-08-02T15:12:46;2.75;;;1.05;;
10100;SDS011;5090;51.258;4.436;2022-08-02T15:15:15;2.30;;;0.98;;
10100;SDS011;5090;51.258;4.436;2022-08-02T15:17:44;4.87;;;1.00;;
10100;SDS011;5090;51.258;4.436;2022-08-02T15:20:12;3.15;;;1.00;;
10100;SDS011;5090;51.258;4.436;2022-08-02T15:22:40;5.00;;;1.20;;
10100;SDS011;5090;51.258;4.436;2022-08-02T15:25:09;2.30;;;1.00;;
10100;SDS011;5090;51.258;4.436;2022-08-02T15:27:37;4.28;;;1.10;;
10100;SDS011;5090;51.258;4.436;2022-08-02T15:30:05;3.00;;;0.65;;
10100;SDS011;5090;51.258;4.436;2022-08-02T15:32:34;2.67;;;0.85;;
10100;SDS011;5090;51.258;4.436;2022-08-02T15:35:03;7.10;;;1.10;;
10100;SDS011;5090;51.258;4.436;2022-08-02T15:37:31;3.05;;;1.05;;
10100;SDS011;5090;51.258;4.436;2022-08-02T15:40:00;3.00;;;0.80;;
10100;SDS011;5090;51.258;4.436;2022-08-02T15:42:28;5.07;;;1.08;;